createdAt,value
2023-11-18T00:00:26.753Z,102182.77
2023-11-18T00:01:20.232Z,102183.41
2023-11-18T00:01:53.420Z,102189.23
2023-11-18T00:02:27.108Z,102184.95
2023-11-18T00:03:00.570Z,102187.03
2023-11-18T00:03:34.492Z,102192.69
2023-11-18T00:04:11.335Z,102191.07
2023-11-18T00:04:45.065Z,102187.83
2023-11-18T00:05:18.952Z,102188.66
2023-11-18T00:05:52.164Z,102189.34
2023-11-18T00:06:25.435Z,102186.67
2023-11-18T00:07:00.154Z,102185.23
2023-11-18T00:07:33.920Z,102183.77
2023-11-18T00:08:08.099Z,102178.27
2023-11-18T00:08:41.491Z,102172.73
2023-11-18T00:09:15.905Z,102175.03
2023-11-18T00:09:49.442Z,102176.25
2023-11-18T00:10:22.681Z,102171.83
2023-11-18T00:10:55.893Z,102170.94
2023-11-18T00:11:29.262Z,102165.97
2023-11-18T00:12:02.738Z,102167.58
2023-11-18T00:12:36.862Z,102162.43
2023-11-18T00:13:10.313Z,102159.38
2023-11-18T00:13:44.591Z,102158.65
2023-11-18T00:14:19.238Z,102156.37
2023-11-18T00:14:52.741Z,102156.71
2023-11-18T00:15:25.930Z,102156.72
2023-11-18T00:15:59.407Z,102153.89
2023-11-18T00:16:32.844Z,102154.95
2023-11-18T00:17:06.222Z,102152.30
2023-11-18T00:17:39.493Z,102148.78
2023-11-18T00:18:13.568Z,102143.86
2023-11-18T00:18:46.739Z,102146.35
2023-11-18T00:19:19.713Z,102146.20
2023-11-18T00:19:55.009Z,102140.36
2023-11-18T00:20:28.726Z,102134.84
2023-11-18T00:21:02.144Z,102137.33
2023-11-18T00:21:37.497Z,102138.89
2023-11-18T00:22:10.645Z,102138.91
2023-11-18T00:22:44.755Z,102140.50
2023-11-18T00:23:22.008Z,102138.02
2023-11-18T00:23:57.237Z,102138.91
2023-11-18T00:24:30.556Z,102142.26
2023-11-18T00:25:09.084Z,102142.59
2023-11-18T00:25:42.479Z,102140.05
2023-11-18T00:26:15.862Z,102140.73
2023-11-18T00:26:49.884Z,102141.57
2023-11-18T00:27:24.037Z,102140.82
2023-11-18T00:27:57.284Z,102138.30
2023-11-18T00:28:30.956Z,102138.80
2023-11-18T00:29:04.555Z,102138.79
2023-11-18T00:29:40.794Z,102133.45
2023-11-18T00:30:14.210Z,102128.73
2023-11-18T00:30:48.647Z,102125.73
2023-11-18T00:31:22.536Z,102131.77
2023-11-18T00:31:56.006Z,102123.98
2023-11-18T00:32:29.523Z,102123.63
2023-11-18T00:33:03.370Z,102122.92
2023-11-18T00:33:36.858Z,102127.02
2023-11-18T00:34:10.205Z,102125.27
2023-11-18T00:34:43.649Z,102124.39
2023-11-18T00:35:17.069Z,102118.92
2023-11-18T00:35:51.868Z,102122.13
2023-11-18T00:36:25.230Z,102114.15
2023-11-18T00:36:58.953Z,102123.01
2023-11-18T00:37:32.522Z,102120.55
2023-11-18T00:38:06.239Z,102121.26
2023-11-18T00:38:39.913Z,102115.75
2023-11-18T00:39:14.495Z,102116.60
2023-11-18T00:39:49.269Z,102111.86
2023-11-18T00:40:22.505Z,102116.23
2023-11-18T00:40:56.129Z,102111.98
2023-11-18T00:41:30.335Z,102106.13
2023-11-18T00:42:07.697Z,102113.04
2023-11-18T00:42:40.901Z,102114.63
2023-11-18T00:43:14.645Z,102109.17
2023-11-18T00:43:50.910Z,102114.84
2023-11-18T00:44:24.195Z,102108.65
2023-11-18T00:44:58.563Z,102111.80
2023-11-18T00:45:32.067Z,102110.92
2023-11-18T00:46:06.319Z,102110.71
2023-11-18T00:46:39.661Z,102112.06
2023-11-18T00:47:12.913Z,102113.46
2023-11-18T00:47:46.246Z,102114.02
2023-11-18T00:48:19.538Z,102111.55
2023-11-18T00:48:52.627Z,102108.39
2023-11-18T00:49:27.357Z,102115.09
2023-11-18T00:50:04.110Z,102107.64
2023-11-18T00:50:37.849Z,102106.57
2023-11-18T00:51:11.380Z,102108.85
2023-11-18T00:51:44.604Z,102109.73
2023-11-18T00:52:17.866Z,102110.11
2023-11-18T00:52:51.211Z,102113.84
2023-11-18T00:53:25.775Z,102113.66
2023-11-18T00:54:03.107Z,102109.63
2023-11-18T00:54:37.731Z,102111.58
2023-11-18T00:55:14.448Z,102112.30
2023-11-18T00:55:47.961Z,102107.16
2023-11-18T00:56:22.783Z,102104.14
2023-11-18T00:56:55.938Z,102108.78
2023-11-18T00:57:29.429Z,102105.76
2023-11-18T00:58:03.028Z,102105.05
2023-11-18T00:58:41.728Z,102109.01
2023-11-18T00:59:16.660Z,102104.60
2023-11-18T00:59:49.721Z,102100.54
2023-11-18T01:00:23.444Z,102097.89
2023-11-18T01:00:56.753Z,102097.71
2023-11-18T01:01:30.131Z,102093.46
2023-11-18T01:02:04.814Z,102089.94
2023-11-18T01:02:42.052Z,102089.80
2023-11-18T01:03:15.308Z,102087.17
2023-11-18T01:03:49.197Z,102084.73
2023-11-18T01:04:22.451Z,102085.67
2023-11-18T01:04:55.660Z,102087.27
2023-11-18T01:05:28.946Z,102086.27
2023-11-18T01:06:02.348Z,102083.79
2023-11-18T01:06:35.724Z,102085.59
2023-11-18T01:07:10.520Z,102085.79
2023-11-18T01:07:44.395Z,102081.42
2023-11-18T01:08:18.554Z,102084.27
2023-11-18T01:08:51.797Z,102082.18
2023-11-18T01:09:26.533Z,102083.45
2023-11-18T01:10:00.160Z,102078.86
2023-11-18T01:10:33.655Z,102077.45
2023-11-18T01:11:07.145Z,102079.41
2023-11-18T01:11:40.887Z,102072.70
2023-11-18T01:12:34.445Z,102074.63
2023-11-18T01:13:07.536Z,102072.69
2023-11-18T01:13:40.780Z,102070.00
2023-11-18T01:14:14.315Z,102069.14
2023-11-18T01:14:47.951Z,102067.02
2023-11-18T01:15:21.490Z,102062.45
2023-11-18T01:15:55.072Z,102063.30
2023-11-18T01:16:29.562Z,102065.08
2023-11-18T01:17:04.079Z,102063.30
2023-11-18T01:17:37.502Z,102060.61
2023-11-18T01:18:10.978Z,102059.02
2023-11-18T01:18:45.314Z,102058.66
2023-11-18T01:19:19.521Z,102052.83
2023-11-18T01:19:53.143Z,102056.02
2023-11-18T01:20:27.633Z,102054.44
2023-11-18T01:21:01.031Z,102052.83
2023-11-18T01:21:34.397Z,102056.92
2023-11-18T01:22:07.573Z,102057.46
2023-11-18T01:22:43.318Z,102058.52
2023-11-18T01:23:16.734Z,102059.91
2023-11-18T01:23:50.256Z,102056.34
2023-11-18T01:24:23.600Z,102056.88
2023-11-18T01:24:59.466Z,102058.81
2023-11-18T01:25:33.940Z,102055.30
2023-11-18T01:26:07.610Z,102055.27
2023-11-18T01:26:40.877Z,102047.85
2023-11-18T01:27:14.411Z,102055.28
2023-11-18T01:27:48.144Z,102044.48
2023-11-18T01:28:21.333Z,102050.86
2023-11-18T01:28:56.826Z,102046.05
2023-11-18T01:29:30.203Z,102048.70
2023-11-18T01:30:05.444Z,102050.12
2023-11-18T01:30:38.842Z,102045.35
2023-11-18T01:31:12.849Z,102048.55
2023-11-18T01:31:52.172Z,102048.56
2023-11-18T01:32:27.159Z,102047.50
2023-11-18T01:33:03.909Z,102048.36
2023-11-18T01:33:38.575Z,102042.54
2023-11-18T01:34:13.554Z,102043.60
2023-11-18T01:34:51.493Z,102042.73
2023-11-18T01:35:28.484Z,102041.34
2023-11-18T01:36:01.661Z,102035.86
2023-11-18T01:36:34.870Z,102036.77
2023-11-18T01:37:08.858Z,102038.89
2023-11-18T01:37:42.889Z,102039.77
2023-11-18T01:38:16.065Z,102042.27
2023-11-18T01:38:49.226Z,102040.34
2023-11-18T01:39:22.677Z,102036.81
2023-11-18T01:39:55.890Z,102040.36
2023-11-18T01:40:31.613Z,102035.40
2023-11-18T01:41:06.410Z,102038.27
2023-11-18T01:41:39.472Z,102032.95
2023-11-18T01:42:12.955Z,102034.20
2023-11-18T01:42:47.799Z,102029.96
2023-11-18T01:43:23.423Z,102030.52
2023-11-18T01:43:56.852Z,102028.05
2023-11-18T01:44:31.689Z,102033.04
2023-11-18T01:45:05.447Z,102028.95
2023-11-18T01:45:38.723Z,102027.59
2023-11-18T01:46:12.106Z,102026.89
2023-11-18T01:46:49.020Z,102025.66
2023-11-18T01:47:22.571Z,102021.75
2023-11-18T01:47:56.121Z,102028.86
2023-11-18T01:48:31.794Z,102027.09
2023-11-18T01:49:05.301Z,102023.92
2023-11-18T01:49:42.131Z,102020.38
2023-11-18T01:50:16.450Z,102026.23
2023-11-18T01:50:50.509Z,102021.67
2023-11-18T01:51:24.726Z,102022.05
2023-11-18T01:51:58.720Z,102020.29
2023-11-18T01:52:32.294Z,102016.73
2023-11-18T01:53:06.966Z,102021.14
2023-11-18T01:53:43.620Z,102019.05
2023-11-18T01:54:20.385Z,102018.72
2023-11-18T01:54:56.329Z,102017.32
2023-11-18T01:55:29.909Z,102015.55
2023-11-18T01:56:04.209Z,102016.08
2023-11-18T01:56:37.486Z,102016.43
2023-11-18T01:57:11.620Z,102014.50
2023-11-18T01:57:46.606Z,102017.86
2023-11-18T01:58:21.117Z,102015.23
2023-11-18T01:58:54.617Z,102014.69
2023-11-18T01:59:31.187Z,102014.00
2023-11-18T02:00:07.643Z,102009.59
2023-11-18T02:00:47.516Z,102007.31
2023-11-18T02:01:21.517Z,102011.76
2023-11-18T02:02:00.086Z,102010.70
2023-11-18T02:02:39.205Z,102007.89
2023-11-18T02:03:13.585Z,102006.50
2023-11-18T02:03:48.503Z,102006.70
2023-11-18T02:04:22.989Z,102009.38
2023-11-18T02:04:56.818Z,102009.55
2023-11-18T02:05:30.059Z,102008.16
2023-11-18T02:06:05.995Z,102006.05
2023-11-18T02:06:39.327Z,102008.70
2023-11-18T02:07:16.179Z,102005.87
2023-11-18T02:07:49.460Z,102008.34
2023-11-18T02:08:23.202Z,102015.43
2023-11-18T02:08:56.312Z,102011.33
2023-11-18T02:09:30.305Z,102011.00
2023-11-18T02:10:10.513Z,102012.80
2023-11-18T02:10:51.679Z,102010.48
2023-11-18T02:11:33.464Z,102012.98
2023-11-18T02:12:30.646Z,102011.05
2023-11-18T02:13:26.910Z,102010.65
2023-11-18T02:14:05.822Z,102007.29
2023-11-18T02:14:41.402Z,102003.91
2023-11-18T02:15:15.635Z,102004.99
2023-11-18T02:15:48.764Z,102000.79
2023-11-18T02:16:23.807Z,102002.55
2023-11-18T02:17:00.828Z,102002.38
2023-11-18T02:17:35.629Z,101997.99
2023-11-18T02:18:10.995Z,102000.98
2023-11-18T02:18:44.486Z,101993.91
2023-11-18T02:19:27.077Z,101992.33
2023-11-18T02:20:01.690Z,101994.81
2023-11-18T02:20:35.111Z,101991.11
2023-11-18T02:21:09.359Z,101988.66
2023-11-18T02:21:45.054Z,101987.61
2023-11-18T02:22:18.805Z,101989.75
2023-11-18T02:22:53.118Z,101986.58
2023-11-18T02:23:29.453Z,101987.31
2023-11-18T02:24:02.789Z,101982.05
2023-11-18T02:24:38.777Z,101984.55
2023-11-18T02:25:17.428Z,101982.30
2023-11-18T02:25:50.684Z,101984.80
2023-11-18T02:26:24.842Z,101985.84
2023-11-18T02:26:58.798Z,101986.21
2023-11-18T02:27:33.098Z,101982.16
2023-11-18T02:28:06.127Z,101978.11
2023-11-18T02:28:39.785Z,101976.88
2023-11-18T02:29:13.153Z,101980.43
2023-11-18T02:29:50.146Z,101979.36
2023-11-18T02:30:24.183Z,101976.91
2023-11-18T02:31:06.705Z,101970.89
2023-11-18T02:31:40.284Z,101968.61
2023-11-18T02:32:28.198Z,101967.75
2023-11-18T02:33:08.612Z,101966.52
2023-11-18T02:33:52.186Z,101969.73
2023-11-18T02:34:31.541Z,101965.68
2023-11-18T02:35:17.560Z,101970.67
2023-11-18T02:35:58.408Z,101967.50
2023-11-18T02:36:40.545Z,101962.91
2023-11-18T02:37:13.946Z,101965.24
2023-11-18T02:37:49.871Z,101964.21
2023-11-18T02:38:29.108Z,101967.98
2023-11-18T02:39:08.332Z,101960.74
2023-11-18T02:39:45.008Z,101957.77
2023-11-18T02:40:21.499Z,101968.44
2023-11-18T02:41:00.770Z,101968.10
2023-11-18T02:41:36.567Z,101964.92
2023-11-18T02:42:13.673Z,101967.62
2023-11-18T02:42:50.047Z,101966.05
2023-11-18T02:43:25.345Z,101964.13
2023-11-18T02:44:00.154Z,101965.59
2023-11-18T02:44:34.611Z,101966.86
2023-11-18T02:45:09.936Z,101969.38
2023-11-18T02:45:45.078Z,101968.14
2023-11-18T02:46:18.925Z,101960.88
2023-11-18T02:46:52.558Z,101960.05
2023-11-18T02:47:28.104Z,101958.30
2023-11-18T02:48:01.668Z,101961.34
2023-11-18T02:48:37.566Z,101956.23
2023-11-18T02:49:11.247Z,101954.84
2023-11-18T02:49:44.443Z,101947.43
2023-11-18T02:50:20.591Z,101953.48
2023-11-18T02:50:54.339Z,101953.33
2023-11-18T02:51:27.602Z,101948.74
2023-11-18T02:52:01.060Z,101949.30
2023-11-18T02:52:37.871Z,101949.67
2023-11-18T02:53:13.636Z,101947.16
2023-11-18T02:53:47.034Z,101943.65
2023-11-18T02:54:21.162Z,101948.99
2023-11-18T02:54:55.210Z,101949.38
2023-11-18T02:55:28.850Z,101950.98
2023-11-18T02:56:06.069Z,101945.53
2023-11-18T02:56:39.543Z,101942.16
2023-11-18T02:57:15.167Z,101945.04
2023-11-18T02:57:48.699Z,101940.44
2023-11-18T02:58:22.218Z,101937.64
2023-11-18T02:58:57.994Z,101934.09
2023-11-18T02:59:32.124Z,101928.77
2023-11-18T03:00:38.425Z,101927.56
2023-11-18T03:01:13.523Z,101930.79
2023-11-18T03:01:47.231Z,101927.44
2023-11-18T03:02:22.286Z,101925.46
2023-11-18T03:02:56.131Z,101922.45
2023-11-18T03:03:29.964Z,101918.57
2023-11-18T03:04:03.948Z,101915.77
2023-11-18T03:04:37.262Z,101915.78
2023-11-18T03:05:13.120Z,101916.67
2023-11-18T03:05:46.958Z,101909.78
2023-11-18T03:06:20.469Z,101910.31
2023-11-18T03:06:53.666Z,101909.77
2023-11-18T03:07:28.302Z,101910.32
2023-11-18T03:08:02.190Z,101912.95
2023-11-18T03:08:35.555Z,101910.83
2023-11-18T03:09:11.152Z,101909.75
2023-11-18T03:09:44.362Z,101905.67
2023-11-18T03:10:24.322Z,101910.77
2023-11-18T03:10:58.614Z,101907.95
2023-11-18T03:11:32.433Z,101912.55
2023-11-18T03:12:08.972Z,101905.30
2023-11-18T03:12:42.002Z,101909.74
2023-11-18T03:13:15.131Z,101907.98
2023-11-18T03:13:48.560Z,101908.02
2023-11-18T03:14:22.072Z,101908.05
2023-11-18T03:14:55.800Z,101907.70
2023-11-18T03:15:30.023Z,101906.85
2023-11-18T03:16:05.380Z,101908.28
2023-11-18T03:16:40.120Z,101903.36
2023-11-18T03:17:13.316Z,101900.72
2023-11-18T03:17:51.749Z,101904.13
2023-11-18T03:18:25.441Z,101903.44
2023-11-18T03:19:00.192Z,101901.88
2023-11-18T03:19:35.874Z,101899.39
2023-11-18T03:20:09.851Z,101898.55
2023-11-18T03:20:43.082Z,101900.70
2023-11-18T03:21:16.193Z,101897.69
2023-11-18T03:21:54.477Z,101899.98
2023-11-18T03:22:27.951Z,101896.64
2023-11-18T03:23:04.603Z,101893.81
2023-11-18T03:23:37.656Z,101887.97
2023-11-18T03:24:10.634Z,101894.38
2023-11-18T03:24:44.071Z,101894.93
2023-11-18T03:25:18.317Z,101890.34
2023-11-18T03:25:52.886Z,101890.70
2023-11-18T03:26:27.271Z,101891.05
2023-11-18T03:27:00.644Z,101893.90
2023-11-18T03:27:34.177Z,101891.98
2023-11-18T03:28:08.005Z,101890.22
2023-11-18T03:28:41.841Z,101890.59
2023-11-18T03:29:14.933Z,101890.82
2023-11-18T03:29:48.164Z,101885.52
2023-11-18T03:30:22.453Z,101892.96
2023-11-18T03:30:55.798Z,101897.41
2023-11-18T03:31:30.392Z,101883.05
2023-11-18T03:32:05.000Z,101892.30
2023-11-18T03:32:40.087Z,101886.46
2023-11-18T03:33:13.677Z,101884.35
2023-11-18T03:33:46.964Z,101886.14
2023-11-18T03:34:24.095Z,101886.33
2023-11-18T03:35:00.641Z,101892.02
2023-11-18T03:35:34.117Z,101879.59
2023-11-18T03:36:08.056Z,101883.89
2023-11-18T03:36:41.268Z,101886.56
2023-11-18T03:37:14.496Z,101885.67
2023-11-18T03:37:47.622Z,101887.64
2023-11-18T03:38:21.101Z,101880.72
2023-11-18T03:38:54.720Z,101882.67
2023-11-18T03:39:28.684Z,101885.17
2023-11-18T03:40:02.171Z,101875.44
2023-11-18T03:40:36.537Z,101881.29
2023-11-18T03:41:10.017Z,101878.65
2023-11-18T03:41:45.616Z,101881.87
2023-11-18T03:42:18.982Z,101882.77
2023-11-18T03:42:52.355Z,101883.86
2023-11-18T03:43:25.738Z,101887.09
2023-11-18T03:43:59.721Z,101889.96
2023-11-18T03:44:33.776Z,101884.16
2023-11-18T03:45:07.665Z,101883.63
2023-11-18T03:45:41.572Z,101880.45
2023-11-18T03:46:16.783Z,101880.99
2023-11-18T03:46:50.087Z,101881.73
2023-11-18T03:47:25.276Z,101886.34
2023-11-18T03:47:58.562Z,101883.52
2023-11-18T03:48:31.778Z,101880.52
2023-11-18T03:49:05.131Z,101878.96
2023-11-18T03:49:38.356Z,101875.25
2023-11-18T03:50:14.319Z,101876.50
2023-11-18T03:50:50.902Z,101872.79
2023-11-18T03:51:24.533Z,101875.64
2023-11-18T03:51:59.076Z,101872.65
2023-11-18T03:52:32.542Z,101870.70
2023-11-18T03:53:06.336Z,101869.09
2023-11-18T03:53:40.854Z,101871.78
2023-11-18T03:54:15.248Z,101867.71
2023-11-18T03:54:51.156Z,101864.17
2023-11-18T03:55:25.160Z,101865.41
2023-11-18T03:56:01.107Z,101865.60
2023-11-18T03:56:34.939Z,101866.68
2023-11-18T03:57:08.345Z,101862.23
2023-11-18T03:57:43.790Z,101858.55
2023-11-18T03:58:17.433Z,101863.17
2023-11-18T03:58:50.788Z,101860.50
2023-11-18T03:59:24.272Z,101859.79
2023-11-18T03:59:57.663Z,101860.16
2023-11-18T04:00:33.011Z,101853.60
2023-11-18T04:01:07.620Z,101856.63
2023-11-18T04:01:42.691Z,101851.48
2023-11-18T04:02:15.879Z,101851.88
2023-11-18T04:02:49.261Z,101852.23
2023-11-18T04:03:22.362Z,101850.48
2023-11-18T04:03:55.643Z,101854.04
2023-11-18T04:04:28.738Z,101851.72
2023-11-18T04:05:02.034Z,101851.91
2023-11-18T04:05:36.115Z,101855.28
2023-11-18T04:06:10.598Z,101848.20
2023-11-18T04:06:44.645Z,101851.25
2023-11-18T04:07:18.297Z,101845.77
2023-11-18T04:07:51.915Z,101847.20
2023-11-18T04:08:25.016Z,101844.22
2023-11-18T04:08:58.853Z,101848.11
2023-11-18T04:09:32.548Z,101844.58
2023-11-18T04:10:11.359Z,101847.77
2023-11-18T04:10:44.573Z,101848.31
2023-11-18T04:11:18.260Z,101847.95
2023-11-18T04:11:52.512Z,101849.59
2023-11-18T04:12:27.917Z,101848.34
2023-11-18T04:13:01.169Z,101850.30
2023-11-18T04:13:34.303Z,101846.75
2023-11-18T04:14:09.012Z,101850.48
2023-11-18T04:14:42.196Z,101845.71
2023-11-18T04:15:16.660Z,101846.98
2023-11-18T04:15:49.722Z,101848.78
2023-11-18T04:16:22.892Z,101847.55
2023-11-18T04:16:57.118Z,101844.91
2023-11-18T04:17:33.667Z,101846.15
2023-11-18T04:18:08.106Z,101843.85
2023-11-18T04:18:44.517Z,101843.86
2023-11-18T04:19:17.761Z,101841.20
2023-11-18T04:19:51.315Z,101846.02
2023-11-18T04:20:24.794Z,101841.95
2023-11-18T04:20:59.859Z,101846.40
2023-11-18T04:21:33.327Z,101843.58
2023-11-18T04:22:06.747Z,101848.72
2023-11-18T04:22:42.556Z,101850.68
2023-11-18T04:23:15.734Z,101856.02
2023-11-18T04:23:49.992Z,101848.91
2023-11-18T04:24:23.141Z,101849.45
2023-11-18T04:24:56.517Z,101846.27
2023-11-18T04:25:33.250Z,101847.36
2023-11-18T04:26:08.654Z,101851.25
2023-11-18T04:26:43.024Z,101848.96
2023-11-18T04:27:16.395Z,101848.80
2023-11-18T04:27:49.942Z,101853.23
2023-11-18T04:28:24.087Z,101852.38
2023-11-18T04:28:57.406Z,101855.58
2023-11-18T04:29:31.388Z,101854.17
2023-11-18T04:30:06.574Z,101853.48
2023-11-18T04:30:42.256Z,101854.38
2023-11-18T04:31:17.108Z,101846.05
2023-11-18T04:31:50.674Z,101850.86
2023-11-18T04:32:23.988Z,101849.27
2023-11-18T04:32:57.191Z,101850.73
2023-11-18T04:33:30.949Z,101849.31
2023-11-18T04:34:05.750Z,101846.33
2023-11-18T04:34:39.734Z,101846.14
2023-11-18T04:35:14.030Z,101849.36
2023-11-18T04:35:48.400Z,101844.75
2023-11-18T04:36:23.251Z,101853.63
2023-11-18T04:36:56.378Z,101847.26
2023-11-18T04:37:30.308Z,101846.02
2023-11-18T04:38:03.889Z,101852.26
2023-11-18T04:38:37.506Z,101854.03
2023-11-18T04:39:13.302Z,101846.42
2023-11-18T04:39:47.402Z,101850.51
2023-11-18T04:40:20.767Z,101843.60
2023-11-18T04:40:55.556Z,101843.25
2023-11-18T04:41:28.823Z,101836.86
2023-11-18T04:42:02.618Z,101841.70
2023-11-18T04:42:35.761Z,101840.63
2023-11-18T04:43:09.286Z,101834.95
2023-11-18T04:43:46.060Z,101832.48
2023-11-18T04:44:19.926Z,101829.66
2023-11-18T04:44:53.392Z,101831.27
2023-11-18T04:45:26.528Z,101824.17
2023-11-18T04:46:00.712Z,101826.48
2023-11-18T04:46:34.094Z,101825.95
2023-11-18T04:47:08.048Z,101827.20
2023-11-18T04:47:43.006Z,101825.61
2023-11-18T04:48:17.540Z,101831.14
2023-11-18T04:48:50.810Z,101822.80
2023-11-18T04:49:24.711Z,101828.86
2023-11-18T04:49:58.075Z,101832.25
2023-11-18T04:50:32.247Z,101834.39
2023-11-18T04:51:05.672Z,101832.10
2023-11-18T04:51:38.798Z,101830.71
2023-11-18T04:52:12.529Z,101828.77
2023-11-18T04:52:45.794Z,101826.45
2023-11-18T04:53:19.024Z,101829.65
2023-11-18T04:53:52.089Z,101827.90
2023-11-18T04:54:25.484Z,101830.75
2023-11-18T04:54:59.992Z,101829.31
2023-11-18T04:55:33.085Z,101827.38
2023-11-18T04:56:10.710Z,101835.18
2023-11-18T04:56:45.689Z,101829.52
2023-11-18T04:57:19.057Z,101829.18
2023-11-18T04:57:52.178Z,101828.30
2023-11-18T04:58:25.199Z,101826.72
2023-11-18T04:58:58.413Z,101827.96
2023-11-18T04:59:32.294Z,101826.90
2023-11-18T05:00:12.211Z,101823.71
2023-11-18T05:00:46.312Z,101827.63
2023-11-18T05:01:19.628Z,101822.33
2023-11-18T05:01:54.446Z,101824.27
2023-11-18T05:02:27.836Z,101826.23
2023-11-18T05:03:01.802Z,101823.42
2023-11-18T05:03:37.876Z,101821.99
2023-11-18T05:04:12.157Z,101819.89
2023-11-18T05:04:45.389Z,101817.21
2023-11-18T05:05:19.338Z,101814.75
2023-11-18T05:05:55.223Z,101816.55
2023-11-18T05:06:30.373Z,101813.34
2023-11-18T05:07:04.128Z,101815.69
2023-11-18T05:07:37.535Z,101812.66
2023-11-18T05:08:22.806Z,101817.48
2023-11-18T05:08:56.050Z,101815.73
2023-11-18T05:09:29.351Z,101816.08
2023-11-18T05:10:04.369Z,101816.45
2023-11-18T05:10:37.719Z,101815.59
2023-11-18T05:11:10.967Z,101811.86
2023-11-18T05:11:44.198Z,101815.77
2023-11-18T05:12:17.808Z,101820.21
2023-11-18T05:12:57.044Z,101812.94
2023-11-18T05:13:30.931Z,101817.41
2023-11-18T05:14:08.503Z,101818.65
2023-11-18T05:14:41.772Z,101816.17
2023-11-18T05:15:15.784Z,101812.09
2023-11-18T05:15:49.694Z,101809.27
2023-11-18T05:16:23.462Z,101808.21
2023-11-18T05:16:57.181Z,101805.90
2023-11-18T05:17:31.425Z,101807.52
2023-11-18T05:18:06.387Z,101806.64
2023-11-18T05:18:40.208Z,101803.98
2023-11-18T05:19:13.608Z,101806.48
2023-11-18T05:19:46.712Z,101806.14
2023-11-18T05:20:20.536Z,101802.41
2023-11-18T05:20:55.597Z,101804.56
2023-11-18T05:21:29.159Z,101807.23
2023-11-18T05:22:02.523Z,101808.83
2023-11-18T05:22:38.075Z,101808.84
2023-11-18T05:23:11.744Z,101812.39
2023-11-18T05:23:44.944Z,101809.21
2023-11-18T05:24:18.533Z,101809.39
2023-11-18T05:24:51.619Z,101810.66
2023-11-18T05:25:25.925Z,101811.73
2023-11-18T05:26:02.334Z,101811.37
2023-11-18T05:26:36.268Z,101809.23
2023-11-18T05:27:10.038Z,101806.40
2023-11-18T05:27:44.350Z,101804.08
2023-11-18T05:28:17.638Z,101801.08
2023-11-18T05:28:51.362Z,101799.14
2023-11-18T05:29:25.205Z,101800.57
2023-11-18T05:30:00.538Z,101799.33
2023-11-18T05:30:34.016Z,101794.17
2023-11-18T05:31:07.604Z,101798.27
2023-11-18T05:31:41.157Z,101798.46
2023-11-18T05:32:14.544Z,101797.54
2023-11-18T05:32:47.894Z,101790.10
2023-11-18T05:33:21.792Z,101788.52
2023-11-18T05:33:56.880Z,101785.87
2023-11-18T05:34:38.468Z,101785.35
2023-11-18T05:35:13.173Z,101785.69
2023-11-18T05:35:52.744Z,101790.32
2023-11-18T05:36:30.414Z,101792.98
2023-11-18T05:37:03.833Z,101795.28
2023-11-18T05:37:39.362Z,101796.70
2023-11-18T05:38:14.566Z,101801.70
2023-11-18T05:38:49.639Z,101799.20
2023-11-18T05:39:25.495Z,101798.33
2023-11-18T05:40:07.806Z,101794.06
2023-11-18T05:40:45.078Z,101793.86
2023-11-18T05:41:24.829Z,101793.36
2023-11-18T05:41:59.390Z,101796.38
2023-11-18T05:42:32.657Z,101793.90
2023-11-18T05:43:17.590Z,101794.61
2023-11-18T05:43:53.002Z,101797.46
2023-11-18T05:44:31.881Z,101795.71
2023-11-18T05:45:05.926Z,101797.67
2023-11-18T05:45:56.562Z,101796.77
2023-11-18T05:46:31.463Z,101796.10
2023-11-18T05:47:05.201Z,101796.45
2023-11-18T05:47:38.623Z,101794.86
2023-11-18T05:48:14.352Z,101794.34
2023-11-18T05:48:49.633Z,101788.66
2023-11-18T05:49:24.033Z,101785.13
2023-11-18T05:49:57.213Z,101778.56
2023-11-18T05:50:31.008Z,101781.23
2023-11-18T05:51:04.205Z,101777.85
2023-11-18T05:51:37.290Z,101780.73
2023-11-18T05:52:10.252Z,101779.65
2023-11-18T05:52:45.743Z,101783.02
2023-11-18T05:53:18.935Z,101786.23
2023-11-18T05:53:53.322Z,101778.57
2023-11-18T05:54:26.844Z,101773.43
2023-11-18T05:54:59.969Z,101769.52
2023-11-18T05:55:34.128Z,101770.23
2023-11-18T05:56:09.062Z,101772.38
2023-11-18T05:56:42.421Z,101775.92
2023-11-18T05:57:18.797Z,101779.30
2023-11-18T05:57:53.676Z,101779.66
2023-11-18T05:58:27.017Z,101784.10
2023-11-18T05:59:00.504Z,101787.13
2023-11-18T05:59:34.106Z,101789.45
2023-11-18T06:00:10.362Z,101786.10
2023-11-18T06:00:45.866Z,101785.39
2023-11-18T06:01:19.966Z,101781.66
2023-11-18T06:01:53.208Z,101786.29
2023-11-18T06:02:26.432Z,101782.55
2023-11-18T06:02:59.853Z,101782.92
2023-11-18T06:03:33.638Z,101782.93
2023-11-18T06:04:09.566Z,101786.14
2023-11-18T06:04:43.340Z,101773.89
2023-11-18T06:05:17.244Z,101780.45
2023-11-18T06:05:51.320Z,101780.65
2023-11-18T06:06:25.220Z,101782.26
2023-11-18T06:06:58.603Z,101781.54
2023-11-18T06:07:32.250Z,101775.30
2023-11-18T06:08:06.142Z,101772.84
2023-11-18T06:08:42.896Z,101775.70
2023-11-18T06:09:21.849Z,101773.75
2023-11-18T06:09:55.043Z,101771.63
2023-11-18T06:10:29.535Z,101771.80
2023-11-18T06:11:13.971Z,101773.23
2023-11-18T06:11:51.082Z,101773.77
2023-11-18T06:12:24.414Z,101775.36
2023-11-18T06:12:59.626Z,101773.93
2023-11-18T06:13:33.365Z,101775.18
2023-11-18T06:14:09.656Z,101770.92
2023-11-18T06:14:43.413Z,101773.23
2023-11-18T06:15:20.214Z,101775.01
2023-11-18T06:15:54.867Z,101778.20
2023-11-18T06:16:28.444Z,101777.14
2023-11-18T06:17:01.866Z,101776.98
2023-11-18T06:17:35.660Z,101785.14
2023-11-18T06:18:09.812Z,101779.28
2023-11-18T06:18:46.805Z,101781.27
2023-11-18T06:19:22.411Z,101782.16
2023-11-18T06:19:56.099Z,101780.37
2023-11-18T06:20:29.793Z,101779.67
2023-11-18T06:21:04.779Z,101778.41
2023-11-18T06:21:38.874Z,101776.83
2023-11-18T06:22:14.852Z,101779.33
2023-11-18T06:22:48.077Z,101774.54
2023-11-18T06:23:22.611Z,101769.56
2023-11-18T06:23:56.590Z,101766.73
2023-11-18T06:24:29.904Z,101758.75
2023-11-18T06:25:03.841Z,101769.58
2023-11-18T06:25:37.388Z,101771.73
2023-11-18T06:26:14.344Z,101763.19
2023-11-18T06:26:48.086Z,101758.41
2023-11-18T06:27:24.424Z,101753.98
2023-11-18T06:27:59.321Z,101746.50
2023-11-18T06:28:35.095Z,101745.45
2023-11-18T06:29:08.443Z,101748.83
2023-11-18T06:29:41.685Z,101752.56
2023-11-18T06:30:17.168Z,101755.23
2023-11-18T06:30:50.823Z,101751.49
2023-11-18T06:31:25.488Z,101752.02
2023-11-18T06:32:01.362Z,101750.80
2023-11-18T06:32:35.056Z,101745.09
2023-11-18T06:33:08.363Z,101746.69
2023-11-18T06:33:46.888Z,101746.16
2023-11-18T06:34:22.120Z,101745.09
2023-11-18T06:34:56.480Z,101746.86
2023-11-18T06:35:30.821Z,101745.27
2023-11-18T06:36:05.185Z,101738.17
2023-11-18T06:36:38.423Z,101745.44